createdAt,value
2018-04-16T00:01:14.931Z,99253.67
2018-04-16T00:03:41.855Z,99244.00
2018-04-16T00:06:08.557Z,99244.42
2018-04-16T00:08:34.619Z,99251.52
2018-04-16T00:11:00.658Z,99244.73
2018-04-16T00:13:26.776Z,99241.97
2018-04-16T00:15:52.808Z,99237.99
2018-04-16T00:18:18.817Z,99237.03
2018-04-16T00:20:44.841Z,99234.03
2018-04-16T00:23:10.830Z,99230.76
2018-04-16T00:25:36.851Z,99239.27
2018-04-16T00:28:03.621Z,99237.59
2018-04-16T00:30:30.358Z,99240.50
2018-04-16T00:32:56.348Z,99234.83
2018-04-16T00:35:23.525Z,99234.66
2018-04-16T00:37:49.607Z,99238.77
2018-04-16T00:40:15.631Z,99256.55
2018-04-16T00:42:41.727Z,99254.57
2018-04-16T00:45:07.805Z,99255.88
2018-04-16T00:47:33.870Z,99254.41
2018-04-16T00:49:59.975Z,99245.36
2018-04-16T00:52:26.005Z,99251.67
2018-04-16T00:54:52.069Z,99257.95
2018-04-16T00:57:18.124Z,99250.52
2018-04-16T00:59:44.306Z,99252.41
2018-04-16T01:02:11.067Z,99247.78
2018-04-16T01:04:37.145Z,99244.84
2018-04-16T01:07:03.235Z,99246.81
2018-04-16T01:09:29.278Z,99244.16
2018-04-16T01:11:55.434Z,99249.84
2018-04-16T01:14:21.450Z,99243.31
2018-04-16T01:16:47.591Z,99246.10
2018-04-16T01:19:13.653Z,99243.59
2018-04-16T01:21:40.452Z,99244.04
2018-04-16T01:24:06.542Z,99220.09
2018-04-16T01:26:36.425Z,99251.33
2018-04-16T01:29:02.504Z,99249.21
2018-04-16T01:31:28.535Z,99244.95
2018-04-16T01:33:55.237Z,99239.94
2018-04-16T01:36:21.266Z,99243.00
2018-04-16T01:38:47.917Z,99242.22
2018-04-16T01:41:14.011Z,99242.55
2018-04-16T01:43:40.026Z,99241.94
2018-04-16T01:46:06.066Z,99241.54
2018-04-16T01:48:32.120Z,99241.80
2018-04-16T01:50:58.146Z,99237.60
2018-04-16T01:53:24.219Z,99232.88
2018-04-16T01:55:50.307Z,99231.20
2018-04-16T01:58:16.324Z,99236.78
2018-04-16T02:00:42.347Z,99232.13
2018-04-16T02:03:08.413Z,99230.86
2018-04-16T02:05:34.455Z,99235.84
2018-04-16T02:08:00.530Z,99229.20
2018-04-16T02:10:26.602Z,99234.80
2018-04-16T02:12:52.633Z,99237.53
2018-04-16T02:15:18.617Z,99241.89
2018-04-16T02:17:44.722Z,99237.34
2018-04-16T02:20:10.722Z,99239.84
2018-04-16T02:22:36.721Z,99243.77
2018-04-16T02:25:04.721Z,99249.52
2018-04-16T02:27:30.717Z,99246.41
2018-04-16T02:29:56.685Z,99252.59
2018-04-16T02:32:22.669Z,99247.50
2018-04-16T02:37:19.885Z,99251.99
2018-04-16T02:39:45.942Z,99255.70
2018-04-16T02:42:11.972Z,99261.31
2018-04-16T02:44:37.959Z,99264.55
2018-04-16T02:47:03.972Z,99272.35
2018-04-16T02:49:29.979Z,99263.58
2018-04-16T02:51:55.966Z,99265.39
2018-04-16T02:54:21.958Z,99269.16
2018-04-16T02:56:48.060Z,99270.13
2018-04-16T02:59:14.130Z,99268.02
2018-04-16T03:01:40.180Z,99269.03
2018-04-16T03:04:06.149Z,99268.34
2018-04-16T03:06:32.135Z,99267.63
2018-04-16T03:08:58.099Z,99267.52
2018-04-16T03:11:24.085Z,99263.81
2018-04-16T03:13:50.291Z,99265.72
2018-04-16T03:16:16.249Z,99268.39
2018-04-16T03:18:42.196Z,99265.83
2018-04-16T03:21:08.165Z,99261.97
2018-04-16T03:23:34.113Z,99269.22
2018-04-16T03:26:00.064Z,99270.41
2018-04-16T03:28:26.020Z,99270.19
2018-04-16T03:30:52.006Z,99270.69
2018-04-16T03:33:17.953Z,99270.02
2018-04-16T03:35:43.909Z,99268.23
2018-04-16T03:38:09.869Z,99267.34
2018-04-16T03:40:35.823Z,99269.01
2018-04-16T03:43:01.778Z,99268.09
2018-04-16T03:45:27.730Z,99269.44
2018-04-16T03:47:53.761Z,99266.80
2018-04-16T03:50:19.776Z,99269.14
2018-04-16T03:52:45.856Z,99272.50
2018-04-16T03:55:11.850Z,99267.84
2018-04-16T03:57:37.896Z,99270.47
2018-04-16T04:04:12.042Z,99268.90
2018-04-16T04:06:38.052Z,99270.45
2018-04-16T04:09:05.102Z,99266.56
2018-04-16T04:11:31.104Z,99269.64
2018-04-16T04:13:57.121Z,99274.74
2018-04-16T04:16:23.098Z,99279.04
2018-04-16T04:18:49.072Z,99284.39
2018-04-16T04:21:15.104Z,99286.65
2018-04-16T04:23:41.090Z,99289.41
2018-04-16T04:26:07.129Z,99282.38
2018-04-16T04:28:33.131Z,99273.20
2018-04-16T04:30:59.137Z,99283.30
2018-04-16T04:33:25.080Z,99287.33
2018-04-16T04:35:51.032Z,99289.58
2018-04-16T04:38:17.546Z,99280.66
2018-04-16T04:40:43.569Z,99284.67
2018-04-16T04:43:09.522Z,99280.77
2018-04-16T04:45:35.751Z,99282.03
2018-04-16T04:48:01.730Z,99290.57
2018-04-16T04:50:27.693Z,99297.04
2018-04-16T04:52:53.771Z,99296.98
2018-04-16T04:55:19.835Z,99304.08
2018-04-16T04:57:45.804Z,99318.27
2018-04-16T05:00:11.785Z,99333.73
2018-04-16T05:02:37.796Z,99351.92
2018-04-16T05:05:03.817Z,99350.23
2018-04-16T05:07:29.828Z,99347.47
2018-04-16T05:09:55.805Z,99328.16
2018-04-16T05:12:21.805Z,99321.10
2018-04-16T05:14:47.789Z,99315.45
2018-04-16T05:17:13.740Z,99335.24
2018-04-16T05:19:39.734Z,99345.23
2018-04-16T05:22:06.430Z,99336.70
2018-04-16T05:24:32.435Z,99336.18
2018-04-16T05:26:58.434Z,99327.31
2018-04-16T05:29:24.434Z,99331.73
2018-04-16T05:31:50.440Z,99347.44
2018-04-16T05:34:16.389Z,99352.03
2018-04-16T05:36:42.371Z,99359.52
2018-04-16T05:39:08.321Z,99360.18
2018-04-16T05:41:34.346Z,99356.76
2018-04-16T05:44:00.334Z,99351.84
2018-04-16T05:46:26.292Z,99356.02
2018-04-16T05:48:52.321Z,99353.54
2018-04-16T05:51:18.297Z,99370.02
2018-04-16T05:53:44.432Z,99374.91
2018-04-16T05:56:10.398Z,99373.22
2018-04-16T05:58:36.394Z,99368.95
2018-04-16T06:01:02.342Z,99368.84
2018-04-16T06:03:28.294Z,99367.06
2018-04-16T06:05:54.267Z,99379.67
2018-04-16T06:08:20.240Z,99382.38
2018-04-16T06:10:46.389Z,99389.70
2018-04-16T06:13:13.073Z,99390.91
2018-04-16T06:15:39.086Z,99393.11
2018-04-16T06:18:05.094Z,99395.00
2018-04-16T06:20:31.101Z,99395.12
2018-04-16T06:22:57.115Z,99401.86
2018-04-16T06:25:23.097Z,99396.36
2018-04-16T06:27:49.061Z,99399.70
2018-04-16T06:30:15.072Z,99398.41
2018-04-16T06:32:41.020Z,99396.84
2018-04-16T06:35:07.117Z,99399.17
2018-04-16T06:37:33.121Z,99407.39
2018-04-16T06:39:59.082Z,99408.75
2018-04-16T06:42:25.100Z,99410.59
2018-04-16T06:44:51.062Z,99411.61
2018-04-16T06:47:17.036Z,99420.56
2018-04-16T06:49:43.003Z,99425.58
2018-04-16T06:52:08.964Z,99436.59
2018-04-16T06:54:34.942Z,99435.13
2018-04-16T06:57:00.891Z,99430.19
2018-04-16T06:59:26.868Z,99427.47
2018-04-16T07:01:52.933Z,99429.02
2018-04-16T07:04:18.910Z,99433.66
2018-04-16T07:06:44.891Z,99431.17
2018-04-16T07:09:10.912Z,99441.29
2018-04-16T07:11:36.906Z,99440.86
2018-04-16T07:14:02.898Z,99442.06
2018-04-16T07:16:28.913Z,99440.89
2018-04-16T07:18:54.903Z,99440.17
2018-04-16T07:21:20.919Z,99436.56
2018-04-16T07:23:46.917Z,99440.80
2018-04-16T07:26:12.864Z,99440.44
2018-04-16T07:28:38.839Z,99438.42
2018-04-16T07:31:04.784Z,99440.96
2018-04-16T07:33:30.741Z,99436.43
2018-04-16T07:35:56.703Z,99438.78
2018-04-16T07:38:22.665Z,99445.53
2018-04-16T07:40:48.666Z,99438.23
2018-04-16T07:43:14.659Z,99448.33
2018-04-16T07:45:40.611Z,99448.16
2018-04-16T07:48:06.621Z,99451.48
2018-04-16T07:50:32.629Z,99461.89
2018-04-16T07:52:58.636Z,99457.88
2018-04-16T07:55:24.669Z,99463.51
2018-04-16T07:57:50.706Z,99462.06
2018-04-16T08:00:16.668Z,99469.27
2018-04-16T08:02:42.633Z,99469.23
2018-04-16T08:05:08.623Z,99467.05
2018-04-16T08:07:34.605Z,99468.14
2018-04-16T08:10:00.566Z,99470.58
2018-04-16T08:12:26.562Z,99472.27
2018-04-16T08:14:52.543Z,99471.50
2018-04-16T08:17:18.530Z,99473.09
2018-04-16T08:19:44.547Z,99477.11
2018-04-16T08:22:10.598Z,99484.64
2018-04-16T08:24:36.675Z,99484.64
2018-04-16T08:27:02.818Z,99486.94
2018-04-16T08:29:28.863Z,99495.66
2018-04-16T08:31:54.864Z,99497.39
2018-04-16T08:34:20.891Z,99495.81
2018-04-16T08:36:46.907Z,99487.82
2018-04-16T08:39:12.872Z,99490.05
2018-04-16T08:41:38.924Z,99487.36
2018-04-16T08:44:04.892Z,99485.88
2018-04-16T08:46:30.939Z,99483.73
2018-04-16T08:48:57.074Z,99486.87
2018-04-16T08:51:23.168Z,99490.33
2018-04-16T08:53:49.205Z,99491.60
2018-04-16T08:56:15.211Z,99496.15
2018-04-16T08:58:41.332Z,99500.25
2018-04-16T09:01:07.339Z,99494.47
2018-04-16T09:03:33.342Z,99502.30
2018-04-16T09:05:59.324Z,99499.69
2018-04-16T09:08:25.329Z,99512.19
2018-04-16T09:10:51.359Z,99512.55
2018-04-16T09:13:17.343Z,99508.11
2018-04-16T09:15:43.338Z,99515.91
2018-04-16T09:18:09.396Z,99517.70
2018-04-16T09:20:35.455Z,99506.83
2018-04-16T09:23:01.865Z,99507.61
2018-04-16T09:25:27.919Z,99512.52
2018-04-16T09:27:53.945Z,99515.48
2018-04-16T09:30:19.917Z,99515.97
2018-04-16T09:32:45.903Z,99508.67
2018-04-16T09:35:11.889Z,99507.30
2018-04-16T09:37:37.832Z,99505.67
2018-04-16T09:40:03.831Z,99507.10
2018-04-16T09:42:29.814Z,99505.02
2018-04-16T09:44:55.777Z,99505.31
2018-04-16T09:47:21.775Z,99503.08
2018-04-16T09:49:47.737Z,99503.39
2018-04-16T09:52:13.711Z,99508.34
2018-04-16T09:54:39.694Z,99501.42
2018-04-16T09:57:05.695Z,99510.20
2018-04-16T09:59:31.672Z,99519.53
2018-04-16T10:01:57.693Z,99523.67
2018-04-16T10:04:23.653Z,99530.00
2018-04-16T10:06:49.597Z,99532.77
2018-04-16T10:09:15.596Z,99533.12
2018-04-16T10:11:41.562Z,99532.90
2018-04-16T10:14:07.584Z,99532.80
2018-04-16T10:16:33.562Z,99539.59
2018-04-16T10:18:59.544Z,99536.29
2018-04-16T10:21:26.084Z,99534.56
2018-04-16T10:23:52.136Z,99535.94
2018-04-16T10:26:18.204Z,99527.13
2018-04-16T10:28:44.228Z,99529.02
2018-04-16T10:31:10.236Z,99528.72
2018-04-16T10:33:36.333Z,99530.78
2018-04-16T10:36:02.437Z,99527.55
2018-04-16T10:38:29.405Z,99524.06
2018-04-16T10:40:55.415Z,99524.28
2018-04-16T10:43:21.532Z,99522.52
2018-04-16T10:45:47.564Z,99531.10
2018-04-16T10:48:13.591Z,99521.48
2018-04-16T10:50:39.618Z,99520.79
2018-04-16T10:53:05.630Z,99528.01
2018-04-16T10:55:31.754Z,99524.55
2018-04-16T10:57:57.770Z,99529.77
2018-04-16T11:00:23.727Z,99529.05
2018-04-16T11:02:49.712Z,99533.94
2018-04-16T11:05:16.271Z,99536.52
2018-04-16T11:07:42.229Z,99536.80
2018-04-16T11:10:08.158Z,99534.62
2018-04-16T11:12:34.168Z,99536.94
2018-04-16T11:15:00.144Z,99537.95
2018-04-16T11:17:26.113Z,99544.22
2018-04-16T11:19:52.093Z,99544.73
2018-04-16T11:22:18.045Z,99545.13
2018-04-16T11:24:44.055Z,99547.73
2018-04-16T11:29:43.987Z,99548.59
2018-04-16T11:32:09.970Z,99556.19
2018-04-16T11:34:35.937Z,99555.80
2018-04-16T11:37:01.895Z,99548.48
2018-04-16T11:39:27.867Z,99559.48
2018-04-16T11:41:53.820Z,99559.37
2018-04-16T11:44:19.897Z,99566.91
2018-04-16T11:46:45.876Z,99564.83
2018-04-16T11:49:11.838Z,99568.05
2018-04-16T11:51:37.794Z,99573.73
2018-04-16T11:54:03.777Z,99571.84
2018-04-16T11:56:29.765Z,99572.46
2018-04-16T11:58:55.869Z,99577.55
2018-04-16T12:01:21.810Z,99581.56
2018-04-16T12:03:47.793Z,99577.48
2018-04-16T12:06:15.804Z,99581.82
2018-04-16T12:08:41.764Z,99591.58
2018-04-16T12:11:07.744Z,99590.30
2018-04-16T12:13:34.293Z,99586.29
2018-04-16T12:16:00.236Z,99590.44
2018-04-16T12:18:26.199Z,99591.67
2018-04-16T12:20:52.478Z,99595.75
2018-04-16T12:23:18.413Z,99592.91
2018-04-16T12:25:44.588Z,99600.70
2018-04-16T12:28:10.686Z,99594.53
2018-04-16T12:30:36.693Z,99598.45
2018-04-16T12:33:02.644Z,99602.56
2018-04-16T12:35:30.619Z,99605.44
2018-04-16T12:37:57.241Z,99611.84
2018-04-16T12:40:23.216Z,99607.27
2018-04-16T12:42:51.488Z,99610.17
2018-04-16T12:45:17.486Z,99586.19
2018-04-16T12:47:43.504Z,99612.20
2018-04-16T12:50:09.537Z,99610.92
2018-04-16T12:52:35.484Z,99619.17
2018-04-16T12:55:01.462Z,99622.92
2018-04-16T12:57:27.422Z,99623.56
2018-04-16T12:59:53.427Z,99626.22
2018-04-16T13:02:19.409Z,99626.38
2018-04-16T13:04:46.107Z,99628.31
2018-04-16T13:07:12.072Z,99625.44
2018-04-16T13:09:38.054Z,99627.66
2018-04-16T13:12:04.070Z,99629.29
2018-04-16T13:14:30.043Z,99628.44
2018-04-16T13:16:58.314Z,99631.83
2018-04-16T13:19:24.332Z,99635.34
2018-04-16T13:21:50.559Z,99642.34
2018-04-16T13:24:16.585Z,99638.25
2018-04-16T13:26:42.605Z,99633.26
2018-04-16T13:29:08.574Z,99639.13
2018-04-16T13:31:34.659Z,99641.19
2018-04-16T13:34:00.648Z,99643.37
2018-04-16T13:36:26.988Z,99650.52
2018-04-16T13:38:55.100Z,99645.01
2018-04-16T13:41:21.069Z,99650.45
2018-04-16T13:43:47.100Z,99651.01
2018-04-16T13:46:13.127Z,99655.58
2018-04-16T13:48:39.133Z,99660.76
2018-04-16T13:51:05.117Z,99659.39
2018-04-16T13:53:31.069Z,99662.37
2018-04-16T13:55:57.042Z,99658.09
2018-04-16T13:58:23.002Z,99668.20
2018-04-16T14:00:48.994Z,99672.48
2018-04-16T14:03:14.945Z,99673.69
2018-04-16T14:05:40.904Z,99668.27
2018-04-16T14:08:06.925Z,99660.73
2018-04-16T14:10:32.878Z,99671.27
2018-04-16T14:12:58.841Z,99675.55
2018-04-16T14:15:24.807Z,99671.27
2018-04-16T14:17:50.780Z,99680.66
2018-04-16T14:20:16.776Z,99683.72
2018-04-16T14:22:42.793Z,99686.63
2018-04-16T14:25:08.775Z,99685.41
2018-04-16T14:27:34.729Z,99691.29
2018-04-16T14:30:00.718Z,99693.12
2018-04-16T14:32:26.685Z,99698.50
2018-04-16T14:34:52.671Z,99702.73
2018-04-16T14:37:18.643Z,99700.34
2018-04-16T14:39:44.592Z,99701.95
2018-04-16T14:42:10.523Z,99698.89
2018-04-16T14:44:36.450Z,99698.02
2018-04-16T14:49:34.276Z,99712.16
2018-04-16T14:52:00.268Z,99703.67
2018-04-16T14:54:26.314Z,99709.16
2018-04-16T14:56:52.299Z,99711.53
2018-04-16T14:59:18.548Z,99716.25
2018-04-16T15:01:44.500Z,99719.90
2018-04-16T15:04:10.457Z,99720.16
2018-04-16T15:06:36.469Z,99720.06
2018-04-16T15:09:02.486Z,99722.53
2018-04-16T15:11:28.776Z,99727.33
2018-04-16T15:13:54.827Z,99732.00
2018-04-16T15:16:20.839Z,99732.42
2018-04-16T15:18:46.834Z,99729.17
2018-04-16T15:21:13.856Z,99740.11
2018-04-16T15:23:39.830Z,99738.12
2018-04-16T15:26:05.779Z,99744.94
2018-04-16T15:28:31.733Z,99732.25
2018-04-16T15:30:57.687Z,99743.27
2018-04-16T15:33:23.630Z,99744.02
2018-04-16T15:35:49.662Z,99741.95
2018-04-16T15:38:15.654Z,99743.46
2018-04-16T15:40:42.341Z,99749.00
2018-04-16T15:43:08.361Z,99749.00
2018-04-16T15:45:34.372Z,99742.70
2018-04-16T15:48:01.081Z,99748.81
2018-04-16T15:50:27.603Z,99751.76
2018-04-16T15:52:53.585Z,99752.20
2018-04-16T15:55:19.581Z,99754.59
2018-04-16T15:57:45.552Z,99756.86
2018-04-16T16:00:11.854Z,99759.47
2018-04-16T16:02:37.907Z,99760.73
2018-04-16T16:05:03.860Z,99767.06
2018-04-16T16:07:35.820Z,99767.02
2018-04-16T16:10:01.808Z,99767.52
2018-04-16T16:12:27.807Z,99773.80
2018-04-16T16:14:53.744Z,99769.25
2018-04-16T16:17:23.338Z,99768.62
2018-04-16T16:19:49.849Z,99775.50
2018-04-16T16:22:17.507Z,99774.83
2018-04-16T16:24:44.179Z,99781.03
2018-04-16T16:27:14.875Z,99780.29
2018-04-16T16:29:44.253Z,99784.78
2018-04-16T16:32:10.279Z,99788.02
2018-04-16T16:34:37.459Z,99788.56
2018-04-16T16:37:03.491Z,99790.66
2018-04-16T16:39:29.528Z,99791.91
2018-04-16T16:41:55.486Z,99791.56
2018-04-16T16:44:22.604Z,99798.31
2018-04-16T16:46:49.163Z,99799.14
2018-04-16T16:49:15.120Z,99790.78
2018-04-16T16:51:41.680Z,99753.04
2018-04-16T16:54:07.670Z,99796.25
2018-04-16T16:56:33.642Z,99802.34
2018-04-16T16:58:59.587Z,99807.27
2018-04-16T17:01:25.530Z,99810.44
2018-04-16T17:03:51.509Z,99814.89
2018-04-16T17:06:17.543Z,99815.44
2018-04-16T17:08:43.576Z,99815.55
2018-04-16T17:11:09.523Z,99813.33
2018-04-16T17:13:35.669Z,99822.16
2018-04-16T17:16:02.275Z,99829.44
2018-04-16T17:18:29.316Z,99831.87
2018-04-16T17:20:55.356Z,99835.61
2018-04-16T17:23:21.427Z,99830.95
2018-04-16T17:25:47.422Z,99833.09
2018-04-16T17:28:13.376Z,99835.58
2018-04-16T17:30:40.485Z,99837.42
2018-04-16T17:33:06.461Z,99840.70
2018-04-16T17:35:32.713Z,99842.20
2018-04-16T17:37:58.715Z,99848.48
2018-04-16T17:40:24.676Z,99856.16
2018-04-16T17:42:50.669Z,99858.38
2018-04-16T17:45:16.637Z,99862.64
2018-04-16T17:47:42.647Z,99865.72
2018-04-16T17:50:08.610Z,99867.31
2018-04-16T17:52:34.562Z,99873.00
2018-04-16T17:55:00.572Z,99874.33
2018-04-16T17:57:26.553Z,99880.16
2018-04-16T17:59:52.554Z,99880.05
2018-04-16T18:02:18.621Z,99880.05
2018-04-16T18:04:44.585Z,99886.95
2018-04-16T18:07:10.575Z,99887.37
2018-04-16T18:09:36.616Z,99897.56
2018-04-16T18:12:02.949Z,99904.83
2018-04-16T18:14:28.951Z,99903.95
2018-04-16T18:16:54.935Z,99912.45
2018-04-16T18:19:21.067Z,99910.70
2018-04-16T18:21:47.027Z,99912.34
2018-04-16T18:24:13.005Z,99913.73
2018-04-16T18:26:38.955Z,99922.73
2018-04-16T18:29:04.919Z,99927.27
2018-04-16T18:31:31.300Z,99931.55
2018-04-16T18:33:57.309Z,99933.03
2018-04-16T18:36:23.258Z,99932.95
2018-04-16T18:38:50.002Z,99935.62
2018-04-16T18:41:15.977Z,99934.75
2018-04-16T18:43:42.992Z,99941.96
2018-04-16T18:46:08.971Z,99945.85
2018-04-16T18:48:34.949Z,99956.23
2018-04-16T18:51:01.772Z,99957.83
2018-04-16T18:53:27.742Z,99960.00
2018-04-16T18:55:53.850Z,99961.27
2018-04-16T18:58:19.836Z,99967.17
2018-04-16T19:00:45.941Z,99970.70
2018-04-16T19:03:11.921Z,99977.80
2018-04-16T19:05:37.888Z,99984.98
2018-04-16T19:08:03.945Z,99977.27
2018-04-16T19:10:34.013Z,99979.05
2018-04-16T19:13:00.072Z,99970.40
2018-04-16T19:15:26.249Z,99975.35
2018-04-16T19:17:53.316Z,99982.91
2018-04-16T19:20:19.290Z,99987.68
2018-04-16T19:22:45.260Z,99983.08
2018-04-16T19:25:11.214Z,99978.33
2018-04-16T19:27:37.234Z,99983.53
2018-04-16T19:30:03.202Z,99986.92
2018-04-16T19:32:29.182Z,99989.36
2018-04-16T19:34:55.125Z,99990.32
2018-04-16T19:37:21.086Z,99997.48
2018-04-16T19:39:47.068Z,100002.15
2018-04-16T19:42:13.070Z,100002.16
2018-04-16T19:44:39.106Z,100000.95
2018-04-16T19:47:05.067Z,99998.91
2018-04-16T19:49:31.071Z,100003.52
2018-04-16T19:51:57.072Z,99995.16
2018-04-16T19:54:23.081Z,100009.76
2018-04-16T19:56:49.095Z,100010.19
2018-04-16T19:59:15.223Z,100006.79
2018-04-16T20:01:41.166Z,100013.51
2018-04-16T20:04:07.201Z,100013.97
2018-04-16T20:06:34.306Z,100014.34
2018-04-16T20:09:00.270Z,100014.45
2018-04-16T20:11:26.268Z,100022.84
2018-04-16T20:13:52.249Z,100012.36
2018-04-16T20:16:18.217Z,100011.13
2018-04-16T20:18:44.152Z,100012.34
2018-04-16T20:21:10.128Z,100007.70
2018-04-16T20:23:36.304Z,100010.16
2018-04-16T20:26:02.282Z,100008.48
2018-04-16T20:28:28.542Z,100018.70
2018-04-16T20:30:54.513Z,100011.98
2018-04-16T20:33:20.559Z,100014.48
2018-04-16T20:35:46.547Z,100015.39
2018-04-16T20:38:12.521Z,100023.44
2018-04-16T20:40:38.482Z,100028.97
2018-04-16T20:43:04.440Z,100028.94
2018-04-16T20:45:30.485Z,100029.91
2018-04-16T20:47:56.466Z,100028.17
2018-04-16T20:50:22.439Z,100036.19
2018-04-16T20:52:48.442Z,100042.92
2018-04-16T20:55:14.834Z,100045.11
2018-04-16T20:57:40.782Z,100049.83
2018-04-16T21:00:06.777Z,100045.09
2018-04-16T21:02:32.735Z,100049.88
2018-04-16T21:05:00.670Z,100046.05
2018-04-16T21:07:26.652Z,100048.97
2018-04-16T21:09:52.649Z,100053.19
2018-04-16T21:12:18.634Z,100060.38
2018-04-16T21:14:44.589Z,100061.70
2018-04-16T21:17:10.634Z,100059.55
2018-04-16T21:19:36.616Z,100057.84
2018-04-16T21:22:02.590Z,100064.70
2018-04-16T21:24:28.596Z,100064.72
2018-04-16T21:26:54.536Z,100068.82
2018-04-16T21:29:20.472Z,100064.59
2018-04-16T21:31:47.025Z,100074.80
2018-04-16T21:34:13.003Z,100081.96
2018-04-16T21:36:38.960Z,100092.19
2018-04-16T21:39:04.944Z,100091.33
2018-04-16T21:41:31.219Z,100093.86
2018-04-16T21:43:57.195Z,100093.39
2018-04-16T21:46:23.180Z,100098.48
2018-04-16T21:48:49.160Z,100104.00
2018-04-16T21:51:15.127Z,100107.34
2018-04-16T21:53:41.079Z,100112.42
2018-04-16T21:58:39.506Z,100128.39
2018-04-16T22:01:05.461Z,100125.06
2018-04-16T22:03:31.382Z,100131.87
2018-04-16T22:05:57.320Z,100131.83
2018-04-16T22:08:23.266Z,100136.43
2018-04-16T22:10:49.814Z,100136.11
2018-04-16T22:13:16.101Z,100136.97
2018-04-16T22:15:42.053Z,100149.69
2018-04-16T22:18:07.989Z,100141.67
2018-04-16T22:20:33.981Z,100145.00
2018-04-16T22:22:59.951Z,100146.61
2018-04-16T22:25:25.941Z,100147.95
2018-04-16T22:27:51.918Z,100145.45
2018-04-16T22:30:17.921Z,100151.83
2018-04-16T22:32:43.913Z,100156.91
2018-04-16T22:35:09.949Z,100162.03
2018-04-16T22:37:35.918Z,100169.19
2018-04-16T22:40:01.875Z,100165.00
2018-04-16T22:42:27.821Z,100166.67
2018-04-16T22:44:53.813Z,100167.52
2018-04-16T22:47:19.786Z,100171.76
2018-04-16T22:49:45.738Z,100178.53
2018-04-16T22:52:11.686Z,100180.63
2018-04-16T22:54:37.624Z,100176.84
2018-04-16T22:57:03.610Z,100184.46
2018-04-16T22:59:29.572Z,100186.13
2018-04-16T23:01:55.502Z,100186.55
2018-04-16T23:04:21.474Z,100195.44
2018-04-16T23:06:47.415Z,100192.06
2018-04-16T23:09:13.370Z,100148.98
2018-04-16T23:11:39.369Z,100197.11
2018-04-16T23:14:05.415Z,100191.22
2018-04-16T23:16:31.971Z,100193.33
2018-04-16T23:18:57.982Z,100200.08
2018-04-16T23:21:23.978Z,100211.91
2018-04-16T23:23:49.953Z,100207.70
2018-04-16T23:26:15.921Z,100211.51
2018-04-16T23:28:41.892Z,100211.06
2018-04-16T23:31:07.839Z,100217.89
2018-04-16T23:33:33.778Z,100213.25
2018-04-16T23:35:59.768Z,100212.39
2018-04-16T23:38:25.688Z,100221.25
2018-04-16T23:40:51.640Z,100229.26
2018-04-16T23:43:17.592Z,100228.42
2018-04-16T23:45:43.538Z,100232.64
2018-04-16T23:48:09.626Z,100231.38
2018-04-16T23:50:35.586Z,100233.05
2018-04-16T23:53:01.620Z,100241.55
2018-04-16T23:55:27.551Z,100242.83
2018-04-16T23:57:53.487Z,100240.69
